Time;durP1;ratioP1;P1;durP2;ratioP2;P2;SDS_P1;SDS_P2;PMS_P1;PMS_P2;Temp;Humidity;BMP_temperature;BMP_pressure;BME280_temperature;BME280_humidity;BME280_pressure;Samples;Min_cycle;Max_cycle;Signal;HPM_P1;HPM_P2
2023/02/01 00:00:56;;;;;;;18.25;3.45;;;;;;;3.95;94.23;100795.66;4933399;29;20127;-78
2023/02/01 00:03:22;;;;;;;14.93;4.55;;;;;;;3.97;93.75;100800.00;4937814;29;20039;-80
2023/02/01 00:05:59;;;;;;;14.57;3.97;;;;;;;4.05;93.29;100807.94;4931661;29;20407;-76
2023/02/01 00:08:26;;;;;;;18.50;3.90;;;;;;;4.03;93.00;100803.56;4931988;29;20111;-79
2023/02/01 00:11:01;;;;;;;15.52;4.50;;;;;;;3.98;92.62;100794.00;4946955;28;20138;-77
2023/02/01 00:13:33;;;;;;;15.68;2.85;;;;;;;4.02;92.91;100800.13;4914828;28;20035;-80
2023/02/01 00:16:07;;;;;;;22.27;4.93;;;;;;;3.96;93.26;100797.41;4944624;29;20048;-75
2023/02/01 00:18:34;;;;;;;14.60;3.45;;;;;;;3.95;93.52;100793.94;4943399;28;20050;-76
2023/02/01 00:21:01;;;;;;;11.90;2.90;;;;;;;3.93;93.46;100789.59;4936527;29;20435;-79
2023/02/01 00:23:28;;;;;;;9.93;3.08;;;;;;;3.96;92.95;100787.03;4939540;28;20394;-80
2023/02/01 00:25:54;;;;;;;15.55;4.55;;;;;;;3.97;92.65;100791.38;4935747;29;20048;-77
2023/02/01 00:28:21;;;;;;;15.15;4.15;;;;;;;4.03;92.00;100775.06;4950764;28;20050;-78
2023/02/01 00:30:47;;;;;;;11.18;3.63;;;;;;;3.90;92.93;100782.63;4941009;28;20051;-76
2023/02/01 00:33:13;;;;;;;16.88;3.67;;;;;;;3.94;92.54;100789.59;4926108;28;20044;-77
2023/02/01 00:35:40;;;;;;;15.68;3.55;;;;;;;3.94;93.00;100789.59;4937969;28;20039;-79
2023/02/01 00:38:06;;;;;;;10.07;2.85;;;;;;;3.87;93.44;100787.75;4928253;29;20047;-76
2023/02/01 00:40:33;;;;;;;18.77;4.40;;;;;;;3.90;93.26;100784.34;4940295;28;20045;-79
2023/02/01 00:42:59;;;;;;;19.75;3.50;;;;;;;3.93;93.66;100787.84;4945809;28;20376;-79
2023/02/01 00:45:26;;;;;;;10.00;2.97;;;;;;;3.92;93.29;100786.09;4934036;28;20164;-77
2023/02/01 00:47:52;;;;;;;17.35;2.88;;;;;;;3.87;93.83;100779.97;4930959;29;20147;-76
2023/02/01 00:50:19;;;;;;;21.55;5.97;;;;;;;3.94;93.00;100776.66;4923650;28;20091;-76
2023/02/01 00:52:45;;;;;;;12.70;3.17;;;;;;;3.95;93.05;100765.47;4938245;28;20039;-77
2023/02/01 00:55:11;;;;;;;15.48;4.18;;;;;;;3.96;93.13;100766.31;4932460;29;20039;-78
2023/02/01 00:57:38;;;;;;;22.05;5.18;;;;;;;3.90;93.35;100767.09;4926333;29;20047;-77
2023/02/01 01:00:05;;;;;;;12.48;3.15;;;;;;;3.87;93.52;100769.63;4947105;28;20390;-79
2023/02/01 01:02:31;;;;;;;15.73;2.97;;;;;;;3.85;93.64;100760.94;4930625;29;20043;-79
2023/02/01 01:04:58;;;;;;;23.60;5.45;;;;;;;3.83;93.43;100754.84;4938748;28;20051;-78
2023/02/01 01:07:24;;;;;;;15.55;3.45;;;;;;;3.82;93.70;100760.88;4921814;28;20045;-78
2023/02/01 01:09:51;;;;;;;13.52;3.38;;;;;;;3.80;93.63;100760.81;4938444;29;20047;-76
2023/02/01 01:12:19;;;;;;;16.48;3.90;;;;;;;3.76;94.01;100758.16;4943753;29;20043;-76
2023/02/01 01:14:46;;;;;;;11.93;3.28;;;;;;;3.83;93.81;100766.91;4941530;29;20039;-77
2023/02/01 01:17:12;;;;;;;11.98;3.08;;;;;;;3.77;94.17;100770.28;4959719;28;20538;-77
2023/02/01 01:19:39;;;;;;;16.73;3.75;;;;;;;3.83;93.63;100764.34;4938239;29;20040;-79
2023/02/01 01:22:05;;;;;;;14.93;3.22;;;;;;;3.87;93.14;100771.31;4950612;28;20062;-84
2023/02/01 01:24:32;;;;;;;15.50;3.25;;;;;;;3.91;92.95;100761.06;4952404;28;20048;-77
2023/02/01 01:26:58;;;;;;;10.93;3.60;;;;;;;3.96;92.39;100753.38;4930579;29;20039;-76
2023/02/01 01:29:25;;;;;;;17.65;3.72;;;;;;;3.96;92.46;100756.84;4954187;28;20063;-76
2023/02/01 01:31:51;;;;;;;13.70;4.20;;;;;;;3.91;92.65;100737.75;4929695;29;20031;-76
2023/02/01 01:34:18;;;;;;;18.48;2.80;;;;;;;3.87;93.07;100750.59;4951357;28;20505;-76
2023/02/01 01:36:44;;;;;;;19.75;3.25;;;;;;;3.83;93.38;100741.88;4929752;29;20051;-76
2023/02/01 01:39:10;;;;;;;16.55;3.53;;;;;;;3.91;92.85;100750.69;4950960;29;20039;-77
2023/02/01 01:41:37;;;;;;;9.18;3.42;;;;;;;3.95;92.52;100754.19;4945418;29;20036;-77
2023/02/01 01:44:07;;;;;;;13.32;5.07;;;;;;;3.97;92.22;100743.03;4944605;28;20039;-83
2023/02/01 01:46:40;;;;;;;13.77;4.30;;;;;;;3.95;92.16;100736.06;4938545;29;20043;-79
2023/02/01 01:49:17;;;;;;;12.10;2.85;;;;;;;3.94;92.27;100739.53;4932841;29;20066;-76
2023/02/01 01:51:59;;;;;;;23.15;5.18;;;;;;;3.92;92.30;100746.38;4935917;29;20051;-76
2023/02/01 01:54:34;;;;;;;17.70;3.58;;;;;;;3.86;92.94;100738.47;4920941;29;20142;-76
2023/02/01 01:57:30;;;;;;;17.88;3.85;;;;;;;3.85;93.00;100729.84;4933129;29;20052;-76
2023/02/01 02:00:15;;;;;;;17.52;2.88;;;;;;;3.91;92.69;100730.00;4938864;28;20387;-76
2023/02/01 02:02:45;;;;;;;8.25;2.28;;;;;;;3.87;92.88;100729.88;4931046;29;20378;-78
2023/02/01 02:05:14;;;;;;;14.15;3.50;;;;;;;3.79;93.22;100722.84;4927878;29;20050;-76
2023/02/01 02:07:47;;;;;;;13.63;3.75;;;;;;;3.82;93.44;100724.63;4936512;29;20395;-78
2023/02/01 02:10:15;;;;;;;18.63;4.22;;;;;;;3.83;92.97;100723.75;4934973;29;20047;-76
2023/02/01 02:12:45;;;;;;;18.42;3.10;;;;;;;3.78;94.03;100720.22;4930254;29;20046;-77
2023/02/01 02:15:15;;;;;;;14.68;3.42;;;;;;;3.88;93.48;100708.31;4947211;28;20051;-76
2023/02/01 02:18:11;;;;;;;13.13;2.63;;;;;;;3.97;92.66;100724.91;4935446;28;20073;-80
2023/02/01 02:24:44;;;;;;;9.80;2.53;;;;;;;4.11;91.28;100717.41;5123926;27;20474;-78
2023/02/01 02:27:24;;;;;;;16.50;3.03;;;;;;;4.10;91.98;100709.59;5108517;28;20040;-77
2023/02/01 02:30:11;;;;;;;5.32;2.38;;;;;;;4.05;92.45;100708.66;5111332;28;20119;-77
2023/02/01 02:33:15;;;;;;;16.63;2.55;;;;;;;4.18;91.38;100689.03;5106797;28;20043;-77
2023/02/01 02:36:10;;;;;;;12.50;3.13;;;;;;;4.12;91.68;100677.69;5103663;28;20043;-77
2023/02/01 02:38:45;;;;;;;;;;;;;;;4.19;91.15;100680.41;5096906;28;20052;-78
2023/02/01 02:47:55;;;;;;;14.60;3.63;;;;;;;4.21;90.93;100664.03;5091916;28;20150;-76
2023/02/01 03:04:44;;;;;;;10.65;3.30;;;;;;;4.29;90.30;100640.84;5099388;28;20023;-78
2023/02/01 03:07:45;;;;;;;16.35;2.65;;;;;;;4.25;90.56;100657.16;5093813;28;20304;-80
2023/02/01 03:10:24;;;;;;;13.50;2.80;;;;;;;4.22;90.57;100660.56;5095633;28;20044;-77
2023/02/01 03:12:58;;;;;;;16.80;3.08;;;;;;;4.26;91.00;100649.44;5079614;28;20040;-76
2023/02/01 03:15:52;;;;;;;15.73;4.57;;;;;;;4.26;91.08;100645.97;5105049;28;20097;-76
2023/02/01 03:18:37;;;;;;;;;;;;;;;4.26;91.17;100635.59;5100977;28;20139;-76
2023/02/01 03:21:11;;;;;;;15.38;2.40;;;;;;;4.21;91.41;100635.53;5098559;28;19924;-75
2023/02/01 03:23:39;;;;;;;13.98;2.55;;;;;;;4.21;91.57;100637.25;5102415;28;20048;-76
2023/02/01 03:26:11;;;;;;;17.95;2.60;;;;;;;4.19;91.66;100642.41;5102587;28;20036;-85
2023/02/01 03:28:44;;;;;;;15.13;3.22;;;;;;;4.21;91.58;100634.66;5101114;28;20552;-78
2023/02/01 03:31:10;;;;;;;13.88;3.13;;;;;;;4.27;91.00;100620.06;5101981;28;20094;-76
2023/02/01 03:33:37;;;;;;;20.00;3.20;;;;;;;4.34;90.74;100627.94;5094882;28;20051;-78
2023/02/01 03:36:31;;;;;;;15.57;3.17;;;;;;;4.35;90.63;100627.97;5082529;28;20551;-76
2023/02/01 03:39:13;;;;;;;11.77;2.63;;;;;;;4.28;91.34;100616.63;5092206;28;20509;-77
2023/02/01 03:41:47;;;;;;;14.77;3.25;;;;;;;4.31;91.25;100610.63;5084120;28;20047;-78
2023/02/01 03:44:24;;;;;;;15.50;3.00;;;;;;;4.37;91.71;100602.06;5081660;28;20090;-76
2023/02/01 03:46:57;;;;;;;11.63;3.25;;;;;;;4.27;92.52;100608.84;5088798;28;20052;-79
2023/02/01 03:49:39;;;;;;;19.60;4.85;;;;;;;4.16;93.46;100600.00;5102060;28;20470;-76
2023/02/01 03:52:11;;;;;;;18.35;5.57;;;;;;;4.11;94.17;100587.88;5084770;28;20119;-79
2023/02/01 03:54:39;;;;;;;19.17;2.95;;;;;;;4.20;93.39;100578.47;5088133;28;20044;-77
2023/02/01 03:57:12;;;;;;;10.80;2.58;;;;;;;4.17;93.48;100584.50;5088611;28;20042;-77
2023/02/01 03:59:41;;;;;;;13.70;3.30;;;;;;;4.05;94.12;100582.56;5085517;28;20094;-76
2023/02/01 04:02:11;;;;;;;8.88;2.58;;;;;;;4.09;94.48;100578.31;5087271;28;20040;-78
2023/02/01 04:04:37;;;;;;;16.70;4.38;;;;;;;4.17;93.75;100568.94;5089411;28;20036;-77
2023/02/01 04:07:04;;;;;;;17.90;4.35;;;;;;;4.17;94.10;100568.09;5088895;28;20036;-78
2023/02/01 04:09:30;;;;;;;16.98;3.83;;;;;;;4.23;93.64;100583.75;5090725;28;20378;-77
2023/02/01 04:11:57;;;;;;;13.15;4.40;;;;;;;4.24;94.06;100585.50;5086783;28;20032;-76
2023/02/01 04:14:23;;;;;;;18.75;3.88;;;;;;;4.28;93.51;100584.69;5081008;28;20040;-79
2023/02/01 04:16:50;;;;;;;15.80;3.20;;;;;;;4.36;93.44;100577.88;5078317;28;20367;-79
2023/02/01 04:19:16;;;;;;;13.15;4.05;;;;;;;4.37;93.51;100560.59;5080848;28;20131;-80
2023/02/01 04:21:43;;;;;;;11.25;3.65;;;;;;;4.42;93.31;100580.59;5084326;28;20060;-76
2023/02/01 04:24:10;;;;;;;14.65;4.35;;;;;;;4.38;93.92;100575.31;5086674;28;20036;-76
2023/02/01 04:26:36;;;;;;;11.82;3.20;;;;;;;4.39;94.19;100561.50;5081920;28;20028;-78
2023/02/01 04:29:03;;;;;;;15.32;3.03;;;;;;;4.37;93.93;100563.19;5086177;28;20032;-76
2023/02/01 04:31:29;;;;;;;22.90;4.43;;;;;;;4.37;94.04;100563.19;5089823;28;20040;-77
2023/02/01 04:33:57;;;;;;;17.55;6.70;;;;;;;4.31;94.25;100558.81;5093901;28;20041;-77
2023/02/01 04:36:24;;;;;;;15.25;4.18;;;;;;;4.34;94.21;100564.06;5098150;28;20082;-76
2023/02/01 04:38:52;;;;;;;15.15;3.45;;;;;;;4.38;93.59;100549.41;5104784;28;20038;-81
2023/02/01 04:41:19;;;;;;;15.88;4.10;;;;;;;4.42;93.40;100544.28;5095935;28;20436;-83
2023/02/01 04:43:50;;;;;;;12.35;4.07;;;;;;;4.47;92.61;100532.28;5088636;28;20056;-77
2023/02/01 04:46:17;;;;;;;14.00;3.17;;;;;;;4.44;92.90;100539.13;5082360;28;20086;-78
2023/02/01 04:48:43;;;;;;;12.93;3.25;;;;;;;4.41;93.79;100545.13;5083242;28;20066;-77
2023/02/01 04:51:10;;;;;;;21.77;3.22;;;;;;;4.40;94.38;100552.91;5088496;28;20040;-76
2023/02/01 04:53:38;;;;;;;17.75;5.07;;;;;;;4.34;96.67;100535.53;5080224;28;20051;-80
2023/02/01 04:56:06;;;;;;;16.77;3.13;;;;;;;4.12;100.00;100542.97;5080523;28;20040;-78
2023/02/01 04:58:32;;;;;;;16.75;3.72;;;;;;;3.91;100.00;100548.69;5080801;28;20048;-78
2023/02/01 05:00:59;;;;;;;14.15;2.80;;;;;;;3.75;100.00;100542.38;5078638;28;20059;-79
2023/02/01 05:03:25;;;;;;;16.33;3.70;;;;;;;3.67;100.00;100532.75;5067698;28;20051;-77
2023/02/01 05:05:53;;;;;;;10.68;4.22;;;;;;;3.61;100.00;100539.56;5089114;28;20071;-78
2023/02/01 05:08:22;;;;;;;11.93;3.40;;;;;;;3.58;100.00;100534.31;5087168;28;20081;-76
2023/02/01 05:10:48;;;;;;;9.88;3.47;;;;;;;3.54;100.00;100526.47;5089190;28;20044;-78
2023/02/01 05:15:58;;;;;;;14.63;2.60;;;;;;;3.40;100.00;100528.81;5071697;28;20459;-77
2023/02/01 05:18:25;;;;;;;14.27;3.58;;;;;;;3.33;100.00;100524.38;5071794;28;20075;-76
2023/02/01 05:20:51;;;;;;;14.63;3.63;;;;;;;3.30;100.00;100518.28;5083182;28;20039;-77
2023/02/01 05:23:18;;;;;;;10.95;3.55;;;;;;;3.35;100.00;100501.97;5078994;28;20758;-76
2023/02/01 05:25:44;;;;;;;17.27;3.85;;;;;;;3.31;100.00;100525.22;5088033;28;20531;-79
2023/02/01 05:28:11;;;;;;;15.85;3.60;;;;;;;3.38;100.00;100526.19;5086890;28;20063;-76
2023/02/01 05:30:37;;;;;;;11.90;3.80;;;;;;;3.37;100.00;100524.44;5089078;28;20505;-76
2023/02/01 05:33:04;;;;;;;18.10;4.65;;;;;;;3.31;100.00;100530.41;5068795;28;20098;-79
2023/02/01 05:35:31;;;;;;;15.52;5.13;;;;;;;3.25;100.00;100519.06;5083198;28;20448;-82
2023/02/01 05:37:57;;;;;;;15.30;4.18;;;;;;;3.20;100.00;100516.38;5084864;28;20540;-80
2023/02/01 05:40:24;;;;;;;9.40;3.17;;;;;;;3.23;100.00;100521.59;5078736;28;20048;-76
2023/02/01 05:42:50;;;;;;;15.88;5.07;;;;;;;3.27;100.00;100501.84;5086718;28;20044;-78
2023/02/01 05:45:17;;;;;;;11.23;3.85;;;;;;;3.23;100.00;100503.47;5087470;28;20031;-79
2023/02/01 05:47:43;;;;;;;8.70;3.42;;;;;;;3.31;100.00;100509.69;5094432;28;20062;-80
2023/02/01 05:50:10;;;;;;;13.48;3.30;;;;;;;3.32;100.00;100497.63;5082643;28;20060;-80
2023/02/01 05:52:36;;;;;;;20.35;4.38;;;;;;;3.40;100.00;100502.94;5085245;28;20040;-77
2023/02/01 05:55:03;;;;;;;15.07;3.55;;;;;;;3.43;100.00;100496.09;5086014;28;20099;-76
2023/02/01 05:57:29;;;;;;;17.02;4.32;;;;;;;3.53;100.00;100479.00;5070234;28;20455;-78
2023/02/01 05:59:56;;;;;;;15.50;3.53;;;;;;;3.64;100.00;100487.81;5086208;28;20691;-76
2023/02/01 06:02:23;;;;;;;10.68;4.35;;;;;;;3.68;100.00;100493.94;5089800;28;20457;-75
2023/02/01 06:04:51;;;;;;;10.20;3.42;;;;;;;3.61;100.00;100490.38;5086570;28;20072;-76
2023/02/01 06:07:17;;;;;;;13.88;3.10;;;;;;;3.61;100.00;100472.25;5085676;28;20415;-76
2023/02/01 06:09:44;;;;;;;14.43;3.58;;;;;;;3.66;100.00;100477.50;5090861;28;20033;-80
2023/02/01 06:12:10;;;;;;;9.10;2.67;;;;;;;3.63;100.00;100461.91;5085712;28;20055;-78
2023/02/01 06:14:37;;;;;;;12.10;3.28;;;;;;;3.70;100.00;100466.34;5082549;28;20044;-77
2023/02/01 06:17:05;;;;;;;19.50;4.15;;;;;;;3.73;100.00;100463.81;5085062;28;20031;-76
2023/02/01 06:19:32;;;;;;;10.93;2.95;;;;;;;3.73;100.00;100468.09;5066878;28;20046;-78
2023/02/01 06:21:58;;;;;;;7.70;2.58;;;;;;;3.90;100.00;100453.72;5081093;28;20044;-76
2023/02/01 06:24:24;;;;;;;9.57;3.03;;;;;;;3.94;100.00;100450.31;5057872;28;20044;-76
2023/02/01 06:26:51;;;;;;;10.95;2.83;;;;;;;4.02;100.00;100478.06;5086356;28;20475;-79
2023/02/01 06:29:17;;;;;;;11.60;3.55;;;;;;;3.99;100.00;100468.53;5084277;28;20048;-79
2023/02/01 06:31:44;;;;;;;9.00;3.03;;;;;;;3.93;100.00;100464.09;5080778;28;20033;-77
2023/02/01 06:34:11;;;;;;;8.02;3.13;;;;;;;3.84;100.00;100484.69;5079748;28;20490;-77
2023/02/01 06:36:37;;;;;;;8.48;3.13;;;;;;;3.80;100.00;100486.34;5089876;28;20040;-78
2023/02/01 06:39:04;;;;;;;8.43;2.67;;;;;;;3.72;100.00;100490.53;5083289;28;20045;-77
2023/02/01 06:41:30;;;;;;;8.73;2.40;;;;;;;3.71;100.00;100496.56;5085616;28;20044;-76
2023/02/01 06:43:57;;;;;;;16.17;3.35;;;;;;;3.69;100.00;100487.91;5083445;28;20059;-76
2023/02/01 06:46:23;;;;;;;7.03;1.90;;;;;;;3.71;100.00;100493.13;5078112;28;20039;-76
2023/02/01 06:48:50;;;;;;;8.95;2.42;;;;;;;3.72;100.00;100492.28;5084317;28;20062;-81
2023/02/01 06:51:28;;;;;;;12.27;2.75;;;;;;;3.69;100.00;100490.50;5088093;28;20062;-80
2023/02/01 06:53:54;;;;;;;9.68;2.75;;;;;;;3.61;100.00;100490.38;5081336;28;20032;-81
2023/02/01 06:56:21;;;;;;;13.60;2.65;;;;;;;3.60;100.00;100498.13;5093184;28;20082;-82
2023/02/01 06:58:48;;;;;;;9.23;3.65;;;;;;;3.73;100.00;100504.34;5086047;28;20044;-76
2023/02/01 07:01:15;;;;;;;15.35;3.03;;;;;;;3.64;100.00;100497.31;5089641;28;20056;-80
2023/02/01 07:03:42;;;;;;;9.65;2.60;;;;;;;3.64;100.00;100511.13;5085346;28;20036;-78
2023/02/01 07:06:10;;;;;;;12.35;3.63;;;;;;;3.61;100.00;100508.50;5085366;28;20051;-79
2023/02/01 07:08:38;;;;;;;5.78;2.75;;;;;;;3.65;100.00;100486.13;5088695;28;20094;-77
2023/02/01 07:11:07;;;;;;;12.75;2.97;;;;;;;3.64;100.00;100503.34;5089633;28;20494;-77
2023/02/01 07:13:35;;;;;;;8.15;4.50;;;;;;;3.64;100.00;100518.03;5093552;28;20044;-78
2023/02/01 07:16:10;;;;;;;15.00;3.75;;;;;;;3.65;100.00;100517.19;5086125;28;20101;-78
2023/02/01 07:18:37;;;;;;;8.73;3.35;;;;;;;3.69;100.00;100498.28;5082959;28;20094;-81
2023/02/01 07:21:03;;;;;;;13.70;3.10;;;;;;;3.65;100.00;100504.25;5072296;28;20102;-76
2023/02/01 07:23:30;;;;;;;10.15;3.15;;;;;;;3.65;100.00;100493.91;5072483;28;20076;-78
2023/02/01 07:26:04;;;;;;;10.32;3.10;;;;;;;3.74;100.00;100504.41;5087323;28;20040;-78
2023/02/01 07:28:32;;;;;;;15.38;3.05;;;;;;;3.80;100.00;100508.78;5089489;28;20051;-78
2023/02/01 07:31:06;;;;;;;12.85;3.05;;;;;;;3.83;100.00;100502.78;5103439;28;20055;-79
2023/02/01 07:33:33;;;;;;;;;;;;;;;3.89;100.00;100510.66;5085056;28;20041;-77
2023/02/01 07:36:03;;;;;;;11.50;2.63;;;;;;;3.92;100.00;100518.47;5085068;28;19932;-78
2023/02/01 07:38:30;;;;;;;19.13;2.80;;;;;;;4.02;100.00;100516.91;5092496;28;20386;-77
2023/02/01 07:41:05;;;;;;;13.32;3.65;;;;;;;4.06;100.00;100510.94;5100563;28;20110;-76
2023/02/01 07:43:33;;;;;;;17.25;4.68;;;;;;;4.04;100.00;100510.03;5080499;28;20049;-76
2023/02/01 07:46:00;;;;;;;15.93;2.83;;;;;;;4.05;100.00;100519.53;5091038;28;20158;-76
2023/02/01 07:48:27;;;;;;;16.40;4.53;;;;;;;4.04;100.00;100513.50;5085252;28;20040;-78
2023/02/01 07:51:02;;;;;;;18.95;3.33;;;;;;;4.16;100.00;100524.88;5087982;28;20348;-78
2023/02/01 07:53:30;;;;;;;11.50;3.42;;;;;;;4.18;100.00;100526.66;5090434;28;20040;-79
2023/02/01 07:55:57;;;;;;;16.20;3.53;;;;;;;4.22;100.00;100530.16;5089254;28;20090;-76
2023/02/01 07:58:24;;;;;;;17.27;3.42;;;;;;;4.24;100.00;100512.94;5089745;28;20097;-77
2023/02/01 08:03:35;;;;;;;10.77;4.35;;;;;;;4.27;100.00;100524.19;5089155;28;20051;-81
2023/02/01 08:06:02;;;;;;;15.20;3.90;;;;;;;4.29;100.00;100537.19;5090875;28;20125;-78
2023/02/01 08:08:29;;;;;;;12.23;3.28;;;;;;;4.33;100.00;100545.88;5085555;28;20040;-79
2023/02/01 08:11:01;;;;;;;21.58;7.78;;;;;;;4.33;100.00;100540.69;5083977;28;20071;-81
2023/02/01 08:13:28;;;;;;;12.77;3.17;;;;;;;4.48;100.00;100543.50;5086996;28;20093;-80
2023/02/01 08:16:06;;;;;;;13.75;2.92;;;;;;;4.46;100.00;100540.03;5071221;28;20320;-78
2023/02/01 08:18:34;;;;;;;16.60;3.17;;;;;;;4.48;100.00;100556.47;5078900;28;20123;-79
2023/02/01 08:21:06;;;;;;;15.45;3.28;;;;;;;4.45;100.00;100546.06;5091723;28;20493;-78
2023/02/01 08:23:36;;;;;;;15.13;3.13;;;;;;;4.45;100.00;100553.84;5098696;28;20475;-77
2023/02/01 08:26:24;;;;;;;12.23;3.13;;;;;;;4.51;100.00;100558.22;5084928;28;20587;-77
2023/02/01 08:28:57;;;;;;;13.60;2.70;;;;;;;4.50;100.00;100554.78;5087201;28;20466;-78
2023/02/01 08:31:26;;;;;;;15.60;3.45;;;;;;;4.58;100.00;100558.34;5080230;28;20043;-77
2023/02/01 08:33:57;;;;;;;7.65;2.55;;;;;;;4.64;100.00;100558.44;5068224;28;20040;-76
2023/02/01 08:36:25;;;;;;;9.68;2.63;;;;;;;4.65;100.00;100561.88;5091479;28;20040;-77
2023/02/01 08:38:52;;;;;;;12.15;3.45;;;;;;;4.63;100.00;100558.41;5086227;28;20045;-79
2023/02/01 08:41:23;;;;;;;14.13;3.80;;;;;;;4.64;100.00;100565.31;5090172;28;20047;-83
2023/02/01 08:43:50;;;;;;;14.63;4.03;;;;;;;4.64;100.00;100568.81;5090169;28;20034;-76
2023/02/01 08:46:17;;;;;;;15.02;3.25;;;;;;;4.68;100.00;100535.13;5089952;28;20039;-79
2023/02/01 08:48:44;;;;;;;11.75;2.80;;;;;;;4.74;100.00;100559.41;5071308;28;20048;-77
2023/02/01 08:51:13;;;;;;;11.50;2.90;;;;;;;4.75;100.00;100575.84;5076516;28;20384;-78
2023/02/01 08:53:41;;;;;;;11.98;2.90;;;;;;;4.80;99.99;100569.00;5089256;28;20081;-77
2023/02/01 08:56:08;;;;;;;11.30;2.78;;;;;;;4.87;98.83;100578.59;5081430;28;20451;-78
2023/02/01 08:58:35;;;;;;;9.13;2.40;;;;;;;4.87;99.11;100559.59;5073017;28;20402;-77
2023/02/01 09:01:12;;;;;;;13.02;3.20;;;;;;;4.93;98.18;100565.72;5082322;28;20040;-78
2023/02/01 09:03:38;;;;;;;11.25;2.50;;;;;;;4.93;97.83;100563.13;5086149;28;20063;-77
2023/02/01 09:06:12;;;;;;;9.23;1.95;;;;;;;5.00;97.48;100566.66;5067554;28;20037;-77
2023/02/01 09:08:40;;;;;;;10.52;6.68;;;;;;;5.06;96.98;100560.66;5094399;28;20478;-77
2023/02/01 09:11:11;;;;;;;11.20;3.33;;;;;;;5.22;96.25;100548.75;5080414;28;20112;-77
2023/02/01 09:13:38;;;;;;;8.07;3.15;;;;;;;5.44;93.85;100558.50;5095445;28;20041;-77
2023/02/01 09:16:05;;;;;;;9.90;2.63;;;;;;;5.48;93.98;100564.63;5094844;28;20051;-77
2023/02/01 09:18:32;;;;;;;8.18;2.60;;;;;;;5.49;93.02;100570.66;5074077;28;20440;-76
2023/02/01 09:20:58;;;;;;;11.75;3.00;;;;;;;5.50;93.40;100562.03;5075879;28;20036;-76
2023/02/01 09:23:25;;;;;;;10.23;2.53;;;;;;;5.51;93.44;100567.22;5092255;28;20048;-78
2023/02/01 09:25:51;;;;;;;11.15;3.13;;;;;;;5.54;92.74;100558.59;5093092;28;20039;-79
2023/02/01 09:28:19;;;;;;;10.48;3.10;;;;;;;5.54;92.21;100588.06;5095280;28;20066;-77
2023/02/01 09:30:46;;;;;;;11.50;2.80;;;;;;;5.50;93.02;100562.91;5091588;28;20490;-76
2023/02/01 09:33:12;;;;;;;16.40;2.75;;;;;;;5.47;93.35;100568.06;5094635;28;20040;-80
2023/02/01 09:35:39;;;;;;;6.32;2.20;;;;;;;5.56;92.74;100560.38;5095737;28;20037;-77
2023/02/01 09:38:05;;;;;;;8.23;2.38;;;;;;;5.61;92.29;100570.81;5092659;28;20501;-82
2023/02/01 09:40:35;;;;;;;14.65;3.08;;;;;;;5.65;91.91;100569.97;5070814;28;20118;-78
2023/02/01 09:43:26;;;;;;;10.07;2.20;;;;;;;5.66;91.96;100596.81;5098318;28;20496;-76
2023/02/01 09:46:13;;;;;;;16.00;2.90;;;;;;;5.70;92.45;100581.28;5104374;28;20115;-78
2023/02/01 09:48:42;;;;;;;6.22;2.78;;;;;;;5.77;91.53;100577.03;5091365;28;20070;-75
2023/02/01 09:51:18;;;;;;;10.32;2.22;;;;;;;5.68;91.80;100579.53;5074934;28;20036;-78
2023/02/01 09:54:01;;;;;;;9.13;2.75;;;;;;;5.66;91.65;100576.91;5090756;28;20039;-76
2023/02/01 09:56:36;;;;;;;7.50;2.05;;;;;;;5.69;92.42;100576.94;5087585;28;20455;-76
2023/02/01 09:59:34;;;;;;;16.15;2.88;;;;;;;5.72;91.85;100583.88;5092335;28;20101;-76
2023/02/01 10:02:03;;;;;;;11.15;2.53;;;;;;;5.71;91.30;100585.63;5083808;28;20483;-77
2023/02/01 10:04:29;;;;;;;9.20;2.22;;;;;;;5.74;91.54;100583.06;5089979;28;20035;-79
2023/02/01 10:07:23;;;;;;;10.80;2.30;;;;;;;5.76;91.35;100590.84;5085944;28;20040;-77
2023/02/01 10:10:04;;;;;;;11.13;3.17;;;;;;;5.75;91.14;100578.72;5088725;28;20040;-76
2023/02/01 10:13:02;;;;;;;10.02;2.60;;;;;;;5.83;90.89;100568.41;5068700;28;20393;-75
2023/02/01 10:15:44;;;;;;;12.98;2.80;;;;;;;5.93;90.11;100578.91;5068156;28;20493;-78
2023/02/01 10:18:39;;;;;;;11.38;2.88;;;;;;;5.99;89.98;100574.66;5082630;28;20102;-77
2023/02/01 10:21:14;;;;;;;;;;;;;;;6.02;89.74;100564.28;5090764;28;20040;-84
2023/02/01 10:24:02;;;;;;;9.35;2.42;;;;;;;6.02;89.43;100548.69;5069594;28;20507;-76
2023/02/01 10:26:37;;;;;;;13.18;3.17;;;;;;;6.06;89.43;100576.44;5088305;28;20044;-79
2023/02/01 10:29:06;;;;;;;18.70;4.38;;;;;;;6.17;88.43;100554.00;5083979;28;20040;-75
2023/02/01 10:31:37;;;;;;;13.90;3.45;;;;;;;6.14;88.42;100567.00;5086665;28;20043;-83
2023/02/01 10:34:35;;;;;;;9.02;2.90;;;;;;;6.10;87.99;100550.50;5083955;28;20375;-77
2023/02/01 10:37:19;;;;;;;8.73;3.10;;;;;;;6.08;87.78;100552.19;5070411;28;20135;-80
2023/02/01 10:39:48;;;;;;;;;;;;;;;6.10;87.18;100550.50;5087361;28;20048;-83
2023/02/01 10:42:15;;;;;;;11.52;2.17;;;;;;;6.06;87.09;100555.66;5071686;28;19924;-78
2023/02/01 10:44:45;;;;;;;4.88;2.05;;;;;;;6.07;87.02;100549.59;5087176;28;20051;-76
2023/02/01 10:47:12;;;;;;;8.40;2.20;;;;;;;6.04;87.50;100566.03;5076957;28;20036;-76
2023/02/01 10:49:51;;;;;;;11.00;2.60;;;;;;;6.03;86.98;100546.09;5088222;28;20039;-76
2023/02/01 10:52:39;;;;;;;9.82;2.40;;;;;;;5.96;86.80;100539.09;5088126;28;20094;-79
2023/02/01 10:55:39;;;;;;;12.07;2.47;;;;;;;5.95;86.56;100550.34;5093266;28;20097;-79
2023/02/01 10:58:16;;;;;;;12.93;3.97;;;;;;;5.88;86.36;100544.22;5086100;28;20037;-77
2023/02/01 11:00:54;;;;;;;8.60;3.25;;;;;;;5.95;86.12;100545.13;5075177;28;20089;-79
2023/02/01 11:03:36;;;;;;;15.68;3.80;;;;;;;5.89;86.46;100537.28;5102512;28;20119;-77
2023/02/01 11:06:31;;;;;;;17.58;3.08;;;;;;;5.93;86.26;100533.84;5088271;28;20044;-78
2023/02/01 11:09:12;;;;;;;12.20;2.33;;;;;;;5.95;85.17;100522.63;5079429;28;20047;-77
2023/02/01 11:11:47;;;;;;;11.13;3.13;;;;;;;5.91;85.38;100517.41;5086685;28;20055;-76
2023/02/01 11:14:29;;;;;;;10.95;3.28;;;;;;;5.90;85.56;100505.25;5090847;28;20409;-77
2023/02/01 11:17:00;;;;;;;9.40;2.25;;;;;;;5.95;85.81;100509.63;5071125;28;20044;-78
2023/02/01 11:19:28;;;;;;;6.88;2.28;;;;;;;6.02;85.42;100515.75;5096310;28;20040;-80
2023/02/01 11:21:58;;;;;;;6.82;2.53;;;;;;;5.95;85.62;100522.63;5109224;28;20055;-78
2023/02/01 11:24:34;;;;;;;7.35;2.15;;;;;;;5.97;85.58;100513.13;5107017;28;20599;-78
2023/02/01 11:27:04;;;;;;;8.45;2.20;;;;;;;5.97;85.12;100471.53;5102817;28;20052;-76
2023/02/01 11:29:39;;;;;;;5.72;2.63;;;;;;;5.94;85.46;100494.91;5086486;28;20068;-79
2023/02/01 11:32:06;;;;;;;8.38;2.17;;;;;;;5.93;85.27;100489.69;5089273;28;20048;-79
2023/02/01 11:34:42;;;;;;;13.68;2.42;;;;;;;5.95;85.30;100480.19;5089593;28;20032;-78
2023/02/01 11:37:20;;;;;;;8.68;2.67;;;;;;;5.94;85.24;100473.25;5085053;28;20039;-78
2023/02/01 11:39:59;;;;;;;5.65;2.03;;;;;;;5.98;84.89;100467.22;5091155;28;20040;-77
2023/02/01 11:42:29;;;;;;;6.97;1.80;;;;;;;6.04;84.85;100469.03;5077482;28;20145;-81
2023/02/01 11:45:33;;;;;;;9.02;2.65;;;;;;;6.13;85.07;100462.16;5086244;28;20537;-82
2023/02/01 11:48:00;;;;;;;11.02;3.30;;;;;;;6.27;84.60;100438.84;5047588;28;20199;-82
2023/02/01 11:51:11;;;;;;;19.58;3.42;;;;;;;6.36;84.24;100434.53;5057504;28;20482;-82
2023/02/01 11:54:31;;;;;;;7.93;2.50;;;;;;;6.38;84.11;100428.47;5036599;28;20045;-76
2023/02/01 11:57:46;;;;;;;8.30;2.10;;;;;;;6.50;83.59;100425.06;5031072;28;20064;-80
2023/02/01 12:00:34;;;;;;;9.68;2.05;;;;;;;6.62;83.11;100414.72;5074414;28;20060;-76
2023/02/01 12:03:25;;;;;;;11.43;3.22;;;;;;;6.51;82.36;100399.94;5072853;28;20093;-77
2023/02/01 12:06:29;;;;;;;20.25;2.63;;;;;;;6.57;82.42;100398.22;5079759;28;20040;-76
2023/02/01 12:09:19;;;;;;;13.77;2.47;;;;;;;6.77;81.02;100387.88;5077448;28;20757;-77
2023/02/01 12:12:18;;;;;;;6.90;2.67;;;;;;;6.82;80.61;100374.00;5079440;28;20310;-76
2023/02/01 12:15:14;;;;;;;9.02;2.30;;;;;;;6.77;80.31;100368.81;5076324;28;20149;-76
2023/02/01 12:18:04;;;;;;;18.52;3.95;;;;;;;6.58;80.56;100366.16;5085638;28;20040;-78
2023/02/01 12:21:19;;;;;;;10.13;2.55;;;;;;;6.44;81.99;100363.50;5087843;28;20101;-76